Mount Berry, GA

11:20 AM EST on December 09, 2016 (GMT -0500)
Oak Hill & The Martha Berry Museum | | Change Station

Elev 643 ft 34.28 °N, 85.18 °W | Updated 23 seconds ago

Clear
Clear
33.2 °F
Feels Like 29 °F
N
4.0
Wind Variable Wind from North

Today
High -- | Low -- °F
--% Chance of Precip.
Yesterday
High -- | Low -- °F
Precip. -- in
Pressure 30.56 in
Visibility 10.0 miles
Clouds Clear
Windchill 29 °F
Dew Point 23 °F
Humidity 65%
Rainfall 0.00 in
Snow Depth Not available.
7:35 AM 5:31 PM
Waxing Gibbous, 75% visible
METAR KRMG 091553Z AUTO 01006KT 10SM CLR 00/M08 A3055 RMK AO2 SLP347 T00001083
Pressure 30.56 in
Visibility 10.0 miles
Clouds Clear
Windchill 29 °F
Dew Point 23 °F
Humidity 65%
Rainfall 0.00 in
Snow Depth Not available.
7:35 AM 5:31 PM
Waxing Gibbous, 75% visible
METAR KRMG 091553Z AUTO 01006KT 10SM CLR 00/M08 A3055 RMK AO2 SLP347 T00001083

10-Day Weather Forecast

Almanac

Astronomy

Dec. 09, 2016 Rise Set
Actual Time
Civil Twilight
Nautical Twilight
Astronomical Twilight
Moon
Length of Visible Light
Length of Day
Tomorrow will be .
, % of the Moon is Illuminated

Today's Extremes

State Highs State Lows

Community

WunderPhotos

Upload Photos

1,956,462 photos uploaded!

WunderBlog® & News

Nearby

Air Quality

  Air Quality AQ Index Pollutant
Not available.

Snow Depth

Station Depth Elevation

Earthquake Activity

City Distance Mag. Time & Date
Minimum magnitude displayed is 2.5.

Coastal Water Temperatures

Place Temperature

Stations

Nearby Weather Stations

Station Location Temp. Windchill Dew Point Humidity Wind Precip. Elev Updated Type
                   

Watches & Warnings

There are currently no watches in effect.